createdAt,value
2022-08-30T00:01:35.365Z,37.38
2022-08-30T00:06:57.423Z,37.61
2022-08-30T00:12:21.208Z,37.74
2022-08-30T00:17:43.717Z,37.69
2022-08-30T00:23:06.201Z,37.80
2022-08-30T00:28:28.176Z,37.76
2022-08-30T00:33:49.911Z,37.36
2022-08-30T00:39:11.707Z,37.69
2022-08-30T00:44:33.986Z,37.95
2022-08-30T00:49:58.038Z,37.83
2022-08-30T00:55:20.443Z,37.52
2022-08-30T01:00:42.284Z,37.85
2022-08-30T01:06:05.466Z,38.11
2022-08-30T01:11:27.532Z,37.79
2022-08-30T01:16:50.519Z,37.66
2022-08-30T01:22:27.735Z,37.83
2022-08-30T01:27:55.498Z,38.35
2022-08-30T01:33:20.221Z,38.14
2022-08-30T01:38:57.044Z,37.80
2022-08-30T01:44:18.744Z,38.17
2022-08-30T01:49:40.704Z,38.09
2022-08-30T01:55:04.140Z,37.93
2022-08-30T02:00:25.841Z,37.95
2022-08-30T02:05:50.652Z,38.15
2022-08-30T02:11:13.384Z,38.16
2022-08-30T02:16:35.203Z,38.07
2022-08-30T02:21:57.350Z,38.47
2022-08-30T02:27:19.109Z,38.16
2022-08-30T02:32:41.682Z,38.23
2022-08-30T02:38:04.264Z,38.50
2022-08-30T02:43:27.059Z,38.41
2022-08-30T02:48:51.629Z,38.42
2022-08-30T02:54:19.794Z,38.42
2022-08-30T02:59:44.367Z,38.44
2022-08-30T03:05:07.826Z,38.47
2022-08-30T03:10:29.714Z,38.70
2022-08-30T03:15:51.887Z,38.48
2022-08-30T03:21:16.069Z,38.52
2022-08-30T03:26:37.935Z,38.40
2022-08-30T03:32:00.098Z,38.65
2022-08-30T03:37:26.886Z,38.75
2022-08-30T03:42:49.134Z,38.40
2022-08-30T03:48:11.187Z,38.38
2022-08-30T03:53:33.208Z,38.71
2022-08-30T03:58:55.016Z,38.60
2022-08-30T04:04:20.773Z,38.49
2022-08-30T04:09:43.071Z,38.58
2022-08-30T04:15:05.220Z,38.91
2022-08-30T04:20:27.532Z,38.57
2022-08-30T04:25:49.271Z,38.78
2022-08-30T04:31:16.987Z,38.85
2022-08-30T04:36:39.154Z,38.78
2022-08-30T04:42:03.379Z,38.69
2022-08-30T04:47:25.127Z,38.74
2022-08-30T04:52:47.525Z,38.76
2022-08-30T04:58:11.161Z,38.57
2022-08-30T05:03:32.847Z,38.71
2022-08-30T05:08:55.952Z,38.88
2022-08-30T05:14:17.712Z,38.84
2022-08-30T05:19:39.460Z,38.73
2022-08-30T05:25:01.222Z,38.99
2022-08-30T05:30:25.637Z,39.02
2022-08-30T05:35:47.428Z,39.03
2022-08-30T05:41:10.993Z,39.03
2022-08-30T05:51:57.154Z,39.10
2022-08-30T05:57:19.270Z,39.14
2022-08-30T06:02:42.217Z,39.32
2022-08-30T06:08:04.551Z,39.20
2022-08-30T06:13:26.239Z,39.14
2022-08-30T06:18:48.777Z,39.24
2022-08-30T06:24:11.644Z,39.28
2022-08-30T06:29:33.370Z,39.60
2022-08-30T06:34:55.107Z,39.50
2022-08-30T06:40:18.486Z,39.16
2022-08-30T06:45:40.376Z,39.34
2022-08-30T06:51:02.251Z,39.42
2022-08-30T06:56:28.084Z,39.26
2022-08-30T07:01:53.035Z,39.61
2022-08-30T07:07:15.165Z,39.42
2022-08-30T07:12:36.922Z,39.45
2022-08-30T07:18:17.294Z,39.40
2022-08-30T07:23:39.308Z,39.33
2022-08-30T07:29:02.016Z,39.09
2022-08-30T07:34:26.983Z,39.30
2022-08-30T07:39:49.197Z,39.73
2022-08-30T07:45:11.770Z,39.37
2022-08-30T07:50:34.133Z,39.78
2022-08-30T07:55:55.869Z,39.35
2022-08-30T08:01:19.167Z,39.25
2022-08-30T08:06:41.634Z,39.41
2022-08-30T08:12:08.230Z,39.53
2022-08-30T08:17:29.976Z,39.57
2022-08-30T08:22:52.135Z,39.53
2022-08-30T08:28:14.274Z,39.49
2022-08-30T08:33:36.237Z,39.63
2022-08-30T08:38:58.402Z,39.48
2022-08-30T08:44:34.626Z,39.42
2022-08-30T08:50:01.365Z,39.44
2022-08-30T08:55:24.400Z,39.53
2022-08-30T09:00:46.128Z,39.48
2022-08-30T09:06:30.619Z,39.45
2022-08-30T09:11:52.428Z,39.67
2022-08-30T09:17:17.222Z,39.37
2022-08-30T09:22:43.801Z,39.54
2022-08-30T09:28:12.935Z,39.39
2022-08-30T09:33:37.233Z,39.42
2022-08-30T09:39:14.734Z,39.48
2022-08-30T09:44:38.786Z,39.46
2022-08-30T09:50:20.019Z,39.24
2022-08-30T09:56:06.508Z,39.36
2022-08-30T10:01:41.056Z,39.08
2022-08-30T10:07:13.646Z,39.72
2022-08-30T10:12:39.818Z,39.32
2022-08-30T10:18:06.081Z,39.36
2022-08-30T10:23:36.519Z,39.63
2022-08-30T10:29:06.871Z,39.40
2022-08-30T10:35:08.098Z,39.23
2022-08-30T10:40:50.297Z,39.49
2022-08-30T10:46:31.311Z,39.34
2022-08-30T10:52:12.514Z,39.20
2022-08-30T10:57:34.703Z,39.66
2022-08-30T11:03:14.870Z,39.61
2022-08-30T11:08:45.588Z,39.42
2022-08-30T11:14:13.479Z,39.50
2022-08-30T11:19:44.264Z,39.27
2022-08-30T11:25:11.608Z,39.15
2022-08-30T11:30:33.552Z,39.25
2022-08-30T11:35:58.747Z,39.21
2022-08-30T11:42:14.048Z,39.21
2022-08-30T11:47:41.314Z,39.39
2022-08-30T11:53:11.522Z,39.35
2022-08-30T11:58:52.075Z,39.70
2022-08-30T12:04:28.651Z,39.62
2022-08-30T12:09:50.700Z,39.50
2022-08-30T12:16:02.801Z,39.60
2022-08-30T12:21:41.044Z,39.57
2022-08-30T12:27:24.971Z,39.50
2022-08-30T12:32:50.780Z,39.48
2022-08-30T12:38:18.643Z,39.55
2022-08-30T12:43:50.514Z,39.31
2022-08-30T12:49:16.208Z,39.43
2022-08-30T12:54:40.530Z,39.22
2022-08-30T13:00:10.585Z,39.30
2022-08-30T13:05:45.777Z,39.20
2022-08-30T13:11:25.057Z,39.56
2022-08-30T13:16:51.080Z,39.06
2022-08-30T13:22:24.903Z,39.07
2022-08-30T13:27:48.820Z,39.08
2022-08-30T13:33:11.731Z,39.08
2022-08-30T13:38:33.490Z,39.00
2022-08-30T13:44:14.132Z,39.11
2022-08-30T13:49:46.883Z,39.11
2022-08-30T13:55:09.493Z,38.90
2022-08-30T14:00:37.454Z,39.07
2022-08-30T14:06:29.247Z,38.71
2022-08-30T14:11:42.108Z,38.83
2022-08-30T14:17:03.916Z,38.52
2022-08-30T14:22:25.672Z,38.10
2022-08-30T14:27:48.066Z,38.53
2022-08-30T14:33:09.845Z,38.37
2022-08-30T14:38:32.025Z,38.42
2022-08-30T14:43:53.804Z,38.52
2022-08-30T14:49:16.673Z,38.01
2022-08-30T14:54:38.573Z,38.05
2022-08-30T15:00:00.349Z,38.24
2022-08-30T15:05:22.061Z,38.18
2022-08-30T15:10:44.391Z,38.16
2022-08-30T15:16:31.873Z,38.03
2022-08-30T15:21:53.809Z,38.18
2022-08-30T15:27:15.539Z,38.05
2022-08-30T15:32:37.227Z,38.04
2022-08-30T15:37:58.951Z,38.29
2022-08-30T15:43:20.820Z,38.20
2022-08-30T15:48:45.601Z,38.47
2022-08-30T15:54:07.768Z,38.24
2022-08-30T15:59:30.679Z,38.68
2022-08-30T16:04:52.758Z,39.77
2022-08-30T16:10:15.167Z,39.36
2022-08-30T16:15:40.115Z,39.31
2022-08-30T16:21:10.559Z,39.43
2022-08-30T16:26:35.718Z,38.75
2022-08-30T16:31:57.691Z,38.51
2022-08-30T16:37:19.414Z,38.43
2022-08-30T16:42:41.718Z,38.49
2022-08-30T16:48:04.117Z,37.64
2022-08-30T16:53:26.760Z,37.71
2022-08-30T16:58:49.271Z,37.19
2022-08-30T17:04:15.739Z,37.40
2022-08-30T17:09:40.006Z,37.30
2022-08-30T17:15:02.697Z,37.16
2022-08-30T17:20:31.215Z,36.88
2022-08-30T17:25:57.017Z,36.92
2022-08-30T17:31:18.812Z,36.51
2022-08-30T17:36:41.903Z,37.07
2022-08-30T17:42:05.406Z,36.83
2022-08-30T17:47:27.357Z,36.64
2022-08-30T17:52:50.390Z,36.53
2022-08-30T17:58:12.131Z,36.59
2022-08-30T18:03:34.035Z,36.58
2022-08-30T18:08:55.860Z,36.24
2022-08-30T18:14:18.745Z,36.47
2022-08-30T18:19:46.107Z,36.16
2022-08-30T18:25:09.476Z,35.96
2022-08-30T18:30:34.698Z,36.30
2022-08-30T18:36:02.031Z,36.51
2022-08-30T18:41:23.742Z,36.08
2022-08-30T18:46:56.175Z,36.21
2022-08-30T18:52:18.713Z,35.75
2022-08-30T18:57:40.541Z,35.86
2022-08-30T19:03:03.003Z,35.90
2022-08-30T19:08:24.718Z,35.82
2022-08-30T19:13:46.478Z,35.77
2022-08-30T19:19:10.219Z,35.66
2022-08-30T19:24:35.243Z,35.83
2022-08-30T19:29:57.473Z,35.52
2022-08-30T19:35:20.393Z,35.56
2022-08-30T19:40:42.166Z,35.51
2022-08-30T19:46:07.196Z,35.64
2022-08-30T19:51:30.065Z,35.71
2022-08-30T19:56:53.195Z,35.74
2022-08-30T20:02:15.142Z,35.73
2022-08-30T20:07:37.747Z,35.81
2022-08-30T20:12:59.513Z,35.78
2022-08-30T20:18:21.256Z,35.99
2022-08-30T20:23:43.736Z,36.03
2022-08-30T20:29:07.580Z,35.86
2022-08-30T20:34:29.283Z,35.86
2022-08-30T20:39:51.374Z,35.65
2022-08-30T20:45:15.493Z,36.06
2022-08-30T20:50:38.998Z,35.99
2022-08-30T20:56:00.996Z,35.99
2022-08-30T21:01:23.663Z,35.72
2022-08-30T21:06:45.701Z,36.47
2022-08-30T21:12:07.626Z,36.84
2022-08-30T21:17:30.392Z,36.24
2022-08-30T21:22:52.280Z,36.55
2022-08-30T21:28:14.011Z,36.75
2022-08-30T21:33:39.008Z,36.59
2022-08-30T21:39:01.146Z,36.11
2022-08-30T21:44:26.559Z,36.31
2022-08-30T21:49:48.292Z,36.17
2022-08-30T21:55:10.161Z,36.23
2022-08-30T22:00:33.749Z,36.13
2022-08-30T22:05:55.458Z,36.35
2022-08-30T22:11:21.910Z,36.16
2022-08-30T22:16:44.082Z,36.05
2022-08-30T22:22:06.185Z,36.12
2022-08-30T22:27:27.934Z,36.32
2022-08-30T22:32:49.826Z,36.03
2022-08-30T22:38:14.692Z,36.16
2022-08-30T22:43:36.611Z,36.00
2022-08-30T22:48:58.378Z,35.90
2022-08-30T22:54:20.157Z,36.05
2022-08-30T22:59:42.474Z,35.86
2022-08-30T23:05:05.193Z,35.94
2022-08-30T23:10:28.356Z,36.14
2022-08-30T23:15:50.100Z,36.21
2022-08-30T23:21:20.954Z,36.15
2022-08-30T23:27:03.105Z,36.23
2022-08-30T23:32:43.472Z,36.13
2022-08-30T23:38:24.550Z,36.26
2022-08-30T23:44:05.091Z,36.22
2022-08-30T23:49:45.220Z,36.62
2022-08-30T23:55:26.199Z,36.39
